sensor_id;sensor_type;location;lat;lon;timestamp;P1;durP1;ratioP1;P2;durP2;ratioP2
44270;SDS011;29963;44.594;11.368;2023-08-21T00:01:15;11.95;;;8.77;;
44270;SDS011;29963;44.594;11.368;2023-08-21T00:03:41;9.35;;;8.05;;
44270;SDS011;29963;44.594;11.368;2023-08-21T00:06:07;11.00;;;7.63;;
44270;SDS011;29963;44.594;11.368;2023-08-21T00:08:33;9.63;;;8.43;;
44270;SDS011;29963;44.594;11.368;2023-08-21T00:10:58;10.20;;;8.35;;
44270;SDS011;29963;44.594;11.368;2023-08-21T00:13:24;11.48;;;8.35;;
44270;SDS011;29963;44.594;11.368;2023-08-21T00:15:50;9.70;;;8.45;;
44270;SDS011;29963;44.594;11.368;2023-08-21T00:18:15;9.55;;;8.65;;
44270;SDS011;29963;44.594;11.368;2023-08-21T00:20:41;9.48;;;8.50;;
44270;SDS011;29963;44.594;11.368;2023-08-21T00:23:07;8.75;;;7.95;;
44270;SDS011;29963;44.594;11.368;2023-08-21T00:25:34;8.32;;;7.63;;
44270;SDS011;29963;44.594;11.368;2023-08-21T00:28:00;10.43;;;8.52;;
44270;SDS011;29963;44.594;11.368;2023-08-21T00:30:25;8.38;;;7.57;;
44270;SDS011;29963;44.594;11.368;2023-08-21T00:32:51;9.05;;;8.15;;
44270;SDS011;29963;44.594;11.368;2023-08-21T00:35:17;7.93;;;7.22;;
44270;SDS011;29963;44.594;11.368;2023-08-21T00:37:42;8.85;;;8.02;;
44270;SDS011;29963;44.594;11.368;2023-08-21T00:40:08;8.60;;;7.82;;
44270;SDS011;29963;44.594;11.368;2023-08-21T00:42:34;8.68;;;7.88;;
44270;SDS011;29963;44.594;11.368;2023-08-21T00:45:00;8.68;;;7.72;;
44270;SDS011;29963;44.594;11.368;2023-08-21T00:47:25;8.70;;;7.90;;
44270;SDS011;29963;44.594;11.368;2023-08-21T00:49:51;9.38;;;7.88;;
44270;SDS011;29963;44.594;11.368;2023-08-21T00:52:17;10.38;;;8.70;;
44270;SDS011;29963;44.594;11.368;2023-08-21T00:54:43;8.85;;;7.85;;
44270;SDS011;29963;44.594;11.368;2023-08-21T00:57:09;8.90;;;8.07;;
44270;SDS011;29963;44.594;11.368;2023-08-21T00:59:35;9.25;;;8.35;;
44270;SDS011;29963;44.594;11.368;2023-08-21T01:02:02;8.02;;;7.32;;
44270;SDS011;29963;44.594;11.368;2023-08-21T01:04:28;9.27;;;8.48;;
44270;SDS011;29963;44.594;11.368;2023-08-21T01:06:53;10.02;;;9.05;;
44270;SDS011;29963;44.594;11.368;2023-08-21T01:09:27;8.50;;;7.78;;
44270;SDS011;29963;44.594;11.368;2023-08-21T01:12:00;12.00;;;8.25;;
44270;SDS011;29963;44.594;11.368;2023-08-21T01:17:20;9.00;;;8.15;;
44270;SDS011;29963;44.594;11.368;2023-08-21T01:19:48;9.40;;;8.35;;
44270;SDS011;29963;44.594;11.368;2023-08-21T01:22:16;9.07;;;8.18;;
44270;SDS011;29963;44.594;11.368;2023-08-21T01:24:41;10.05;;;9.05;;
44270;SDS011;29963;44.594;11.368;2023-08-21T01:27:07;9.65;;;8.70;;
44270;SDS011;29963;44.594;11.368;2023-08-21T01:29:34;9.95;;;9.05;;
44270;SDS011;29963;44.594;11.368;2023-08-21T01:32:08;9.27;;;8.38;;
44270;SDS011;29963;44.594;11.368;2023-08-21T01:34:39;8.98;;;8.13;;
44270;SDS011;29963;44.594;11.368;2023-08-21T01:37:07;9.10;;;8.30;;
44270;SDS011;29963;44.594;11.368;2023-08-21T01:39:33;8.98;;;8.18;;
44270;SDS011;29963;44.594;11.368;2023-08-21T01:41:59;10.20;;;8.98;;
44270;SDS011;29963;44.594;11.368;2023-08-21T01:44:25;9.35;;;8.55;;
44270;SDS011;29963;44.594;11.368;2023-08-21T01:46:51;10.95;;;9.43;;
44270;SDS011;29963;44.594;11.368;2023-08-21T01:49:20;9.25;;;8.35;;
44270;SDS011;29963;44.594;11.368;2023-08-21T01:51:46;9.13;;;8.32;;
44270;SDS011;29963;44.594;11.368;2023-08-21T01:54:12;8.32;;;7.55;;
44270;SDS011;29963;44.594;11.368;2023-08-21T01:56:37;11.68;;;9.35;;
44270;SDS011;29963;44.594;11.368;2023-08-21T01:59:04;10.57;;;9.68;;
44270;SDS011;29963;44.594;11.368;2023-08-21T02:01:29;9.40;;;8.57;;
44270;SDS011;29963;44.594;11.368;2023-08-21T02:03:55;9.23;;;8.43;;
44270;SDS011;29963;44.594;11.368;2023-08-21T02:06:21;10.40;;;9.35;;
44270;SDS011;29963;44.594;11.368;2023-08-21T02:08:46;9.27;;;8.25;;
44270;SDS011;29963;44.594;11.368;2023-08-21T02:11:12;11.27;;;8.68;;
44270;SDS011;29963;44.594;11.368;2023-08-21T02:13:37;10.80;;;8.30;;
44270;SDS011;29963;44.594;11.368;2023-08-21T02:16:03;9.48;;;8.52;;
44270;SDS011;29963;44.594;11.368;2023-08-21T02:18:29;9.60;;;8.70;;
44270;SDS011;29963;44.594;11.368;2023-08-21T02:20:54;10.82;;;8.57;;
44270;SDS011;29963;44.594;11.368;2023-08-21T02:23:20;9.45;;;8.55;;
44270;SDS011;29963;44.594;11.368;2023-08-21T02:25:46;10.48;;;8.35;;
44270;SDS011;29963;44.594;11.368;2023-08-21T02:28:11;9.93;;;8.80;;
44270;SDS011;29963;44.594;11.368;2023-08-21T02:30:41;9.80;;;8.82;;
44270;SDS011;29963;44.594;11.368;2023-08-21T02:33:07;9.73;;;8.63;;
44270;SDS011;29963;44.594;11.368;2023-08-21T02:35:32;9.75;;;8.50;;
44270;SDS011;29963;44.594;11.368;2023-08-21T02:37:58;10.02;;;9.13;;
44270;SDS011;29963;44.594;11.368;2023-08-21T02:40:24;9.93;;;8.85;;
44270;SDS011;29963;44.594;11.368;2023-08-21T02:42:49;10.10;;;9.20;;
44270;SDS011;29963;44.594;11.368;2023-08-21T02:45:15;10.30;;;9.27;;
44270;SDS011;29963;44.594;11.368;2023-08-21T02:47:41;9.45;;;8.65;;
44270;SDS011;29963;44.594;11.368;2023-08-21T02:50:07;10.18;;;9.27;;
44270;SDS011;29963;44.594;11.368;2023-08-21T02:52:35;11.63;;;8.90;;
44270;SDS011;29963;44.594;11.368;2023-08-21T02:55:01;10.35;;;8.93;;
44270;SDS011;29963;44.594;11.368;2023-08-21T02:57:28;12.43;;;10.35;;
44270;SDS011;29963;44.594;11.368;2023-08-21T02:59:54;10.75;;;9.75;;
44270;SDS011;29963;44.594;11.368;2023-08-21T03:02:20;11.25;;;10.18;;
44270;SDS011;29963;44.594;11.368;2023-08-21T03:04:46;10.35;;;9.30;;
44270;SDS011;29963;44.594;11.368;2023-08-21T03:07:12;9.85;;;8.95;;
44270;SDS011;29963;44.594;11.368;2023-08-21T03:09:38;10.35;;;9.40;;
44270;SDS011;29963;44.594;11.368;2023-08-21T03:12:04;12.23;;;9.40;;
44270;SDS011;29963;44.594;11.368;2023-08-21T03:14:30;10.55;;;9.52;;
44270;SDS011;29963;44.594;11.368;2023-08-21T03:16:56;9.82;;;8.93;;
44270;SDS011;29963;44.594;11.368;2023-08-21T03:19:22;9.90;;;8.88;;
44270;SDS011;29963;44.594;11.368;2023-08-21T03:21:48;12.63;;;9.55;;
44270;SDS011;29963;44.594;11.368;2023-08-21T03:24:14;10.52;;;9.52;;
44270;SDS011;29963;44.594;11.368;2023-08-21T03:26:39;11.23;;;10.23;;
44270;SDS011;29963;44.594;11.368;2023-08-21T03:29:05;9.68;;;8.77;;
44270;SDS011;29963;44.594;11.368;2023-08-21T03:31:30;10.05;;;9.07;;
44270;SDS011;29963;44.594;11.368;2023-08-21T03:33:56;10.18;;;9.27;;
44270;SDS011;29963;44.594;11.368;2023-08-21T03:36:22;10.20;;;9.20;;
44270;SDS011;29963;44.594;11.368;2023-08-21T03:38:58;10.32;;;9.30;;
44270;SDS011;29963;44.594;11.368;2023-08-21T03:41:27;11.82;;;9.50;;
44270;SDS011;29963;44.594;11.368;2023-08-21T03:43:53;11.25;;;10.15;;
44270;SDS011;29963;44.594;11.368;2023-08-21T03:46:18;10.02;;;9.18;;
44270;SDS011;29963;44.594;11.368;2023-08-21T03:48:44;10.20;;;9.30;;
44270;SDS011;29963;44.594;11.368;2023-08-21T03:51:10;10.27;;;9.27;;
44270;SDS011;29963;44.594;11.368;2023-08-21T03:53:35;10.55;;;9.55;;
44270;SDS011;29963;44.594;11.368;2023-08-21T03:56:01;11.43;;;10.23;;
44270;SDS011;29963;44.594;11.368;2023-08-21T03:58:27;10.82;;;9.73;;
44270;SDS011;29963;44.594;11.368;2023-08-21T04:00:53;9.82;;;8.95;;
44270;SDS011;29963;44.594;11.368;2023-08-21T04:03:18;10.20;;;9.30;;
44270;SDS011;29963;44.594;11.368;2023-08-21T04:05:44;11.27;;;10.27;;
44270;SDS011;29963;44.594;11.368;2023-08-21T04:08:10;10.18;;;9.07;;
44270;SDS011;29963;44.594;11.368;2023-08-21T04:10:36;12.60;;;9.73;;
44270;SDS011;29963;44.594;11.368;2023-08-21T04:13:01;10.68;;;9.70;;
44270;SDS011;29963;44.594;11.368;2023-08-21T04:15:27;12.82;;;9.82;;
44270;SDS011;29963;44.594;11.368;2023-08-21T04:17:52;13.35;;;9.63;;
44270;SDS011;29963;44.594;11.368;2023-08-21T04:20:19;15.15;;;10.38;;
44270;SDS011;29963;44.594;11.368;2023-08-21T04:22:46;12.07;;;11.00;;
44270;SDS011;29963;44.594;11.368;2023-08-21T04:25:12;10.27;;;9.25;;
44270;SDS011;29963;44.594;11.368;2023-08-21T04:27:38;9.55;;;8.63;;
44270;SDS011;29963;44.594;11.368;2023-08-21T04:30:04;11.65;;;10.40;;
44270;SDS011;29963;44.594;11.368;2023-08-21T04:32:30;11.27;;;10.30;;
44270;SDS011;29963;44.594;11.368;2023-08-21T04:34:56;11.00;;;10.00;;
44270;SDS011;29963;44.594;11.368;2023-08-21T04:37:22;13.70;;;11.05;;
44270;SDS011;29963;44.594;11.368;2023-08-21T04:39:51;10.95;;;9.95;;
44270;SDS011;29963;44.594;11.368;2023-08-21T04:42:18;10.10;;;9.15;;
44270;SDS011;29963;44.594;11.368;2023-08-21T04:44:43;10.32;;;9.43;;
44270;SDS011;29963;44.594;11.368;2023-08-21T04:47:21;10.52;;;9.43;;
44270;SDS011;29963;44.594;11.368;2023-08-21T04:49:51;11.18;;;10.15;;
44270;SDS011;29963;44.594;11.368;2023-08-21T04:52:18;10.45;;;9.18;;
44270;SDS011;29963;44.594;11.368;2023-08-21T04:54:44;10.88;;;9.88;;
44270;SDS011;29963;44.594;11.368;2023-08-21T04:57:09;12.15;;;9.40;;
44270;SDS011;29963;44.594;11.368;2023-08-21T04:59:35;11.85;;;10.65;;
44270;SDS011;29963;44.594;11.368;2023-08-21T05:02:01;11.25;;;10.13;;
44270;SDS011;29963;44.594;11.368;2023-08-21T05:04:27;9.98;;;9.07;;
44270;SDS011;29963;44.594;11.368;2023-08-21T05:06:53;11.23;;;10.20;;
44270;SDS011;29963;44.594;11.368;2023-08-21T05:09:18;12.00;;;10.82;;
44270;SDS011;29963;44.594;11.368;2023-08-21T05:11:44;12.90;;;10.77;;
44270;SDS011;29963;44.594;11.368;2023-08-21T05:14:09;11.30;;;10.10;;
44270;SDS011;29963;44.594;11.368;2023-08-21T05:16:35;10.82;;;9.73;;
44270;SDS011;29963;44.594;11.368;2023-08-21T05:19:01;12.05;;;10.85;;
44270;SDS011;29963;44.594;11.368;2023-08-21T05:21:27;12.55;;;10.82;;
44270;SDS011;29963;44.594;11.368;2023-08-21T05:23:53;10.93;;;9.90;;
44270;SDS011;29963;44.594;11.368;2023-08-21T05:26:18;10.82;;;9.73;;
44270;SDS011;29963;44.594;11.368;2023-08-21T05:28:44;11.13;;;9.90;;
44270;SDS011;29963;44.594;11.368;2023-08-21T05:31:10;11.23;;;10.20;;
44270;SDS011;29963;44.594;11.368;2023-08-21T05:33:36;12.88;;;11.57;;
44270;SDS011;29963;44.594;11.368;2023-08-21T05:36:01;11.73;;;10.40;;
44270;SDS011;29963;44.594;11.368;2023-08-21T05:38:27;12.05;;;10.32;;
44270;SDS011;29963;44.594;11.368;2023-08-21T05:40:53;12.88;;;11.25;;
44270;SDS011;29963;44.594;11.368;2023-08-21T05:43:18;11.57;;;10.38;;
44270;SDS011;29963;44.594;11.368;2023-08-21T05:45:44;12.48;;;10.32;;
44270;SDS011;29963;44.594;11.368;2023-08-21T05:48:10;11.63;;;10.38;;
44270;SDS011;29963;44.594;11.368;2023-08-21T05:50:35;11.07;;;10.07;;
44270;SDS011;29963;44.594;11.368;2023-08-21T05:53:05;11.93;;;9.90;;
44270;SDS011;29963;44.594;11.368;2023-08-21T05:55:30;11.63;;;9.73;;
44270;SDS011;29963;44.594;11.368;2023-08-21T05:57:56;13.45;;;11.20;;
44270;SDS011;29963;44.594;11.368;2023-08-21T06:00:22;12.32;;;9.60;;
44270;SDS011;29963;44.594;11.368;2023-08-21T06:02:47;12.50;;;11.27;;
44270;SDS011;29963;44.594;11.368;2023-08-21T06:05:13;11.90;;;10.80;;
44270;SDS011;29963;44.594;11.368;2023-08-21T06:07:39;12.38;;;10.35;;
44270;SDS011;29963;44.594;11.368;2023-08-21T06:10:08;12.38;;;11.18;;
44270;SDS011;29963;44.594;11.368;2023-08-21T06:12:37;11.70;;;10.57;;
44270;SDS011;29963;44.594;11.368;2023-08-21T06:15:06;11.98;;;10.07;;
44270;SDS011;29963;44.594;11.368;2023-08-21T06:17:35;12.00;;;10.85;;
44270;SDS011;29963;44.594;11.368;2023-08-21T06:20:01;12.43;;;11.18;;
44270;SDS011;29963;44.594;11.368;2023-08-21T06:22:28;12.57;;;11.38;;
44270;SDS011;29963;44.594;11.368;2023-08-21T06:24:53;15.20;;;10.45;;
44270;SDS011;29963;44.594;11.368;2023-08-21T06:27:19;12.95;;;11.10;;
44270;SDS011;29963;44.594;11.368;2023-08-21T06:29:44;12.10;;;10.85;;
44270;SDS011;29963;44.594;11.368;2023-08-21T06:32:10;27.08;;;11.90;;
44270;SDS011;29963;44.594;11.368;2023-08-21T06:34:36;13.98;;;12.48;;
44270;SDS011;29963;44.594;11.368;2023-08-21T06:37:02;15.55;;;11.98;;
44270;SDS011;29963;44.594;11.368;2023-08-21T06:39:27;12.50;;;11.30;;
44270;SDS011;29963;44.594;11.368;2023-08-21T06:41:53;13.15;;;11.80;;
44270;SDS011;29963;44.594;11.368;2023-08-21T06:44:18;17.40;;;12.45;;
44270;SDS011;29963;44.594;11.368;2023-08-21T06:46:45;12.93;;;11.63;;
44270;SDS011;29963;44.594;11.368;2023-08-21T06:49:10;12.63;;;11.52;;
44270;SDS011;29963;44.594;11.368;2023-08-21T06:51:36;14.82;;;13.32;;
44270;SDS011;29963;44.594;11.368;2023-08-21T06:54:01;19.15;;;11.43;;
44270;SDS011;29963;44.594;11.368;2023-08-21T06:56:27;14.05;;;12.15;;
44270;SDS011;29963;44.594;11.368;2023-08-21T06:58:53;15.57;;;12.85;;
44270;SDS011;29963;44.594;11.368;2023-08-21T07:01:20;12.93;;;11.65;;
44270;SDS011;29963;44.594;11.368;2023-08-21T07:03:46;12.82;;;11.63;;
44270;SDS011;29963;44.594;11.368;2023-08-21T07:06:11;14.52;;;13.02;;
44270;SDS011;29963;44.594;11.368;2023-08-21T07:08:37;14.18;;;12.90;;
44270;SDS011;29963;44.594;11.368;2023-08-21T07:11:05;13.57;;;12.35;;
44270;SDS011;29963;44.594;11.368;2023-08-21T07:13:35;14.10;;;12.85;;
44270;SDS011;29963;44.594;11.368;2023-08-21T07:16:01;15.90;;;12.05;;
44270;SDS011;29963;44.594;11.368;2023-08-21T07:18:28;12.48;;;11.15;;
44270;SDS011;29963;44.594;11.368;2023-08-21T07:20:54;16.30;;;12.45;;
44270;SDS011;29963;44.594;11.368;2023-08-21T07:23:20;13.68;;;12.30;;
44270;SDS011;29963;44.594;11.368;2023-08-21T07:25:46;12.73;;;11.52;;
44270;SDS011;29963;44.594;11.368;2023-08-21T07:28:11;14.25;;;11.80;;
44270;SDS011;29963;44.594;11.368;2023-08-21T07:30:37;13.52;;;12.32;;
44270;SDS011;29963;44.594;11.368;2023-08-21T07:33:03;13.60;;;12.27;;
44270;SDS011;29963;44.594;11.368;2023-08-21T07:35:30;14.85;;;13.00;;
44270;SDS011;29963;44.594;11.368;2023-08-21T07:37:55;14.35;;;12.05;;
44270;SDS011;29963;44.594;11.368;2023-08-21T07:40:21;12.20;;;11.10;;
44270;SDS011;29963;44.594;11.368;2023-08-21T07:42:47;13.85;;;11.63;;
44270;SDS011;29963;44.594;11.368;2023-08-21T07:45:12;11.00;;;10.10;;
44270;SDS011;29963;44.594;11.368;2023-08-21T07:47:38;13.13;;;11.93;;
44270;SDS011;29963;44.594;11.368;2023-08-21T07:50:05;12.45;;;11.35;;
44270;SDS011;29963;44.594;11.368;2023-08-21T07:52:31;13.30;;;11.98;;
44270;SDS011;29963;44.594;11.368;2023-08-21T07:54:57;13.07;;;11.85;;
44270;SDS011;29963;44.594;11.368;2023-08-21T07:57:25;15.15;;;11.68;;
44270;SDS011;29963;44.594;11.368;2023-08-21T07:59:51;12.20;;;10.77;;
44270;SDS011;29963;44.594;11.368;2023-08-21T08:02:17;11.82;;;10.77;;
44270;SDS011;29963;44.594;11.368;2023-08-21T08:04:43;11.10;;;10.00;;
44270;SDS011;29963;44.594;11.368;2023-08-21T08:07:08;12.48;;;11.18;;
44270;SDS011;29963;44.594;11.368;2023-08-21T08:09:34;13.55;;;10.85;;
44270;SDS011;29963;44.594;11.368;2023-08-21T08:12:00;11.75;;;10.43;;
44270;SDS011;29963;44.594;11.368;2023-08-21T08:14:26;12.60;;;11.55;;
44270;SDS011;29963;44.594;11.368;2023-08-21T08:16:52;12.43;;;11.00;;
44270;SDS011;29963;44.594;11.368;2023-08-21T08:19:17;11.45;;;9.50;;
44270;SDS011;29963;44.594;11.368;2023-08-21T08:21:43;15.60;;;10.82;;
44270;SDS011;29963;44.594;11.368;2023-08-21T08:24:08;10.98;;;9.98;;
44270;SDS011;29963;44.594;11.368;2023-08-21T08:26:34;12.85;;;9.93;;
44270;SDS011;29963;44.594;11.368;2023-08-21T08:29:00;10.93;;;9.85;;
44270;SDS011;29963;44.594;11.368;2023-08-21T08:31:26;10.27;;;9.27;;
44270;SDS011;29963;44.594;11.368;2023-08-21T08:33:52;11.77;;;10.63;;
44270;SDS011;29963;44.594;11.368;2023-08-21T08:36:19;10.82;;;9.70;;
44270;SDS011;29963;44.594;11.368;2023-08-21T08:38:45;10.38;;;9.32;;
44270;SDS011;29963;44.594;11.368;2023-08-21T08:41:11;10.52;;;9.63;;
44270;SDS011;29963;44.594;11.368;2023-08-21T08:43:43;10.85;;;9.85;;
44270;SDS011;29963;44.594;11.368;2023-08-21T08:46:10;11.20;;;10.20;;
44270;SDS011;29963;44.594;11.368;2023-08-21T08:48:36;12.43;;;9.43;;
44270;SDS011;29963;44.594;11.368;2023-08-21T08:51:03;10.82;;;9.73;;
44270;SDS011;29963;44.594;11.368;2023-08-21T08:53:29;10.38;;;9.48;;
44270;SDS011;29963;44.594;11.368;2023-08-21T08:55:56;9.32;;;8.43;;
44270;SDS011;29963;44.594;11.368;2023-08-21T08:58:23;9.52;;;8.73;;
44270;SDS011;29963;44.594;11.368;2023-08-21T09:00:48;10.80;;;9.75;;
44270;SDS011;29963;44.594;11.368;2023-08-21T09:03:14;10.50;;;9.40;;
44270;SDS011;29963;44.594;11.368;2023-08-21T09:05:40;12.23;;;9.05;;
44270;SDS011;29963;44.594;11.368;2023-08-21T09:10:32;9.80;;;8.98;;
44270;SDS011;29963;44.594;11.368;2023-08-21T09:12:57;9.55;;;8.68;;
44270;SDS011;29963;44.594;11.368;2023-08-21T09:15:29;10.88;;;9.77;;
44270;SDS011;29963;44.594;11.368;2023-08-21T09:17:55;10.55;;;9.65;;
44270;SDS011;29963;44.594;11.368;2023-08-21T09:20:21;9.43;;;8.52;;
44270;SDS011;29963;44.594;11.368;2023-08-21T09:22:53;12.10;;;9.70;;
44270;SDS011;29963;44.594;11.368;2023-08-21T09:25:22;10.07;;;9.10;;
44270;SDS011;29963;44.594;11.368;2023-08-21T09:27:49;10.45;;;9.48;;
44270;SDS011;29963;44.594;11.368;2023-08-21T09:30:17;10.52;;;9.35;;
44270;SDS011;29963;44.594;11.368;2023-08-21T09:32:58;9.40;;;8.70;;
44270;SDS011;29963;44.594;11.368;2023-08-21T09:35:31;10.23;;;9.27;;
44270;SDS011;29963;44.594;11.368;2023-08-21T09:37:58;10.50;;;9.50;;
44270;SDS011;29963;44.594;11.368;2023-08-21T09:40:24;8.50;;;7.57;;
44270;SDS011;29963;44.594;11.368;2023-08-21T09:42:53;9.88;;;8.95;;
44270;SDS011;29963;44.594;11.368;2023-08-21T09:45:22;9.80;;;8.88;;
44270;SDS011;29963;44.594;11.368;2023-08-21T09:47:49;10.82;;;9.73;;
44270;SDS011;29963;44.594;11.368;2023-08-21T09:50:16;10.63;;;7.93;;
44270;SDS011;29963;44.594;11.368;2023-08-21T09:52:43;9.60;;;8.70;;
44270;SDS011;29963;44.594;11.368;2023-08-21T09:55:10;8.60;;;7.80;;
44270;SDS011;29963;44.594;11.368;2023-08-21T09:57:38;9.95;;;8.93;;
44270;SDS011;29963;44.594;11.368;2023-08-21T10:00:06;9.77;;;8.88;;
44270;SDS011;29963;44.594;11.368;2023-08-21T10:02:51;9.73;;;8.82;;
44270;SDS011;29963;44.594;11.368;2023-08-21T10:05:18;8.40;;;7.68;;
44270;SDS011;29963;44.594;11.368;2023-08-21T10:07:48;8.95;;;8.07;;
44270;SDS011;29963;44.594;11.368;2023-08-21T10:10:16;9.43;;;8.52;;
44270;SDS011;29963;44.594;11.368;2023-08-21T10:12:42;9.00;;;8.02;;
44270;SDS011;29963;44.594;11.368;2023-08-21T10:15:08;8.32;;;7.53;;
44270;SDS011;29963;44.594;11.368;2023-08-21T10:17:34;7.50;;;6.78;;
44270;SDS011;29963;44.594;11.368;2023-08-21T10:20:05;8.25;;;7.35;;
44270;SDS011;29963;44.594;11.368;2023-08-21T10:22:38;6.93;;;6.32;;
44270;SDS011;29963;44.594;11.368;2023-08-21T10:25:04;8.35;;;7.55;;
44270;SDS011;29963;44.594;11.368;2023-08-21T10:27:41;8.23;;;7.03;;
44270;SDS011;29963;44.594;11.368;2023-08-21T10:30:27;7.05;;;6.55;;
44270;SDS011;29963;44.594;11.368;2023-08-21T10:32:54;8.02;;;7.32;;
44270;SDS011;29963;44.594;11.368;2023-08-21T10:35:28;7.78;;;7.00;;
44270;SDS011;29963;44.594;11.368;2023-08-21T10:38:08;7.00;;;6.03;;
44270;SDS011;29963;44.594;11.368;2023-08-21T10:41:03;7.38;;;6.78;;
44270;SDS011;29963;44.594;11.368;2023-08-21T10:43:41;7.45;;;6.85;;
44270;SDS011;29963;44.594;11.368;2023-08-21T10:46:08;7.80;;;7.00;;
44270;SDS011;29963;44.594;11.368;2023-08-21T10:48:37;7.10;;;6.40;;
44270;SDS011;29963;44.594;11.368;2023-08-21T10:51:05;7.70;;;7.00;;
44270;SDS011;29963;44.594;11.368;2023-08-21T10:53:32;6.70;;;6.13;;
44270;SDS011;29963;44.594;11.368;2023-08-21T10:56:02;7.53;;;6.93;;
44270;SDS011;29963;44.594;11.368;2023-08-21T10:58:42;8.77;;;7.45;;
44270;SDS011;29963;44.594;11.368;2023-08-21T11:01:08;7.18;;;6.57;;
44270;SDS011;29963;44.594;11.368;2023-08-21T11:03:37;8.80;;;7.85;;
44270;SDS011;29963;44.594;11.368;2023-08-21T11:06:06;8.10;;;7.30;;
44270;SDS011;29963;44.594;11.368;2023-08-21T11:08:33;6.88;;;6.28;;
44270;SDS011;29963;44.594;11.368;2023-08-21T11:11:03;8.32;;;6.75;;
44270;SDS011;29963;44.594;11.368;2023-08-21T11:13:30;7.72;;;6.43;;
44270;SDS011;29963;44.594;11.368;2023-08-21T11:16:03;6.90;;;6.30;;
44270;SDS011;29963;44.594;11.368;2023-08-21T11:18:33;7.20;;;6.57;;
44270;SDS011;29963;44.594;11.368;2023-08-21T11:21:09;7.07;;;6.35;;
44270;SDS011;29963;44.594;11.368;2023-08-21T11:23:37;6.75;;;6.15;;
44270;SDS011;29963;44.594;11.368;2023-08-21T11:26:09;6.93;;;6.22;;
44270;SDS011;29963;44.594;11.368;2023-08-21T11:28:36;6.65;;;5.97;;
44270;SDS011;29963;44.594;11.368;2023-08-21T11:31:02;7.00;;;6.22;;
44270;SDS011;29963;44.594;11.368;2023-08-21T11:33:30;6.70;;;6.00;;
44270;SDS011;29963;44.594;11.368;2023-08-21T11:35:56;6.65;;;5.97;;
44270;SDS011;29963;44.594;11.368;2023-08-21T11:38:24;6.68;;;5.97;;
44270;SDS011;29963;44.594;11.368;2023-08-21T11:40:54;7.68;;;5.70;;
44270;SDS011;29963;44.594;11.368;2023-08-21T11:43:37;7.90;;;5.90;;
44270;SDS011;29963;44.594;11.368;2023-08-21T11:46:04;7.63;;;5.80;;
44270;SDS011;29963;44.594;11.368;2023-08-21T11:48:30;6.90;;;6.30;;
44270;SDS011;29963;44.594;11.368;2023-08-21T11:50:57;7.07;;;6.40;;
44270;SDS011;29963;44.594;11.368;2023-08-21T11:53:30;7.07;;;6.47;;
44270;SDS011;29963;44.594;11.368;2023-08-21T11:56:09;6.85;;;6.18;;
44270;SDS011;29963;44.594;11.368;2023-08-21T11:58:42;7.50;;;6.72;;
44270;SDS011;29963;44.594;11.368;2023-08-21T12:01:18;6.55;;;5.88;;
44270;SDS011;29963;44.594;11.368;2023-08-21T12:03:44;6.57;;;5.28;;
44270;SDS011;29963;44.594;11.368;2023-08-21T12:06:10;6.30;;;5.70;;
44270;SDS011;29963;44.594;11.368;2023-08-21T12:08:37;6.88;;;6.18;;
44270;SDS011;29963;44.594;11.368;2023-08-21T12:11:03;6.45;;;5.85;;
44270;SDS011;29963;44.594;11.368;2023-08-21T12:13:29;7.75;;;7.00;;
44270;SDS011;29963;44.594;11.368;2023-08-21T12:15:55;7.63;;;6.82;;
44270;SDS011;29963;44.594;11.368;2023-08-21T12:18:22;7.10;;;6.18;;
44270;SDS011;29963;44.594;11.368;2023-08-21T12:20:48;7.22;;;5.63;;
44270;SDS011;29963;44.594;11.368;2023-08-21T12:23:14;6.28;;;5.75;;
44270;SDS011;29963;44.594;11.368;2023-08-21T12:25:40;8.70;;;6.63;;
44270;SDS011;29963;44.594;11.368;2023-08-21T12:28:07;7.28;;;6.57;;
44270;SDS011;29963;44.594;11.368;2023-08-21T12:30:33;7.13;;;6.43;;
44270;SDS011;29963;44.594;11.368;2023-08-21T12:32:59;10.73;;;6.88;;
44270;SDS011;29963;44.594;11.368;2023-08-21T12:35:25;7.25;;;6.55;;
44270;SDS011;29963;44.594;11.368;2023-08-21T12:37:50;7.47;;;6.50;;
44270;SDS011;29963;44.594;11.368;2023-08-21T12:40:19;7.18;;;6.50;;
44270;SDS011;29963;44.594;11.368;2023-08-21T12:42:45;7.80;;;6.97;;
44270;SDS011;29963;44.594;11.368;2023-08-21T12:45:10;7.13;;;6.43;;
44270;SDS011;29963;44.594;11.368;2023-08-21T12:47:36;8.13;;;7.00;;
44270;SDS011;29963;44.594;11.368;2023-08-21T12:50:01;6.95;;;6.35;;
44270;SDS011;29963;44.594;11.368;2023-08-21T12:52:28;8.45;;;7.43;;
44270;SDS011;29963;44.594;11.368;2023-08-21T12:54:54;9.63;;;6.70;;
44270;SDS011;29963;44.594;11.368;2023-08-21T12:57:19;7.47;;;5.68;;
44270;SDS011;29963;44.594;11.368;2023-08-21T12:59:45;6.57;;;6.07;;
44270;SDS011;29963;44.594;11.368;2023-08-21T13:02:10;8.82;;;7.60;;
44270;SDS011;29963;44.594;11.368;2023-08-21T13:04:36;8.30;;;6.53;;
44270;SDS011;29963;44.594;11.368;2023-08-21T13:07:01;6.82;;;6.22;;
44270;SDS011;29963;44.594;11.368;2023-08-21T13:09:28;7.75;;;6.38;;
44270;SDS011;29963;44.594;11.368;2023-08-21T13:11:54;6.47;;;5.88;;
44270;SDS011;29963;44.594;11.368;2023-08-21T13:14:20;6.75;;;5.80;;
44270;SDS011;29963;44.594;11.368;2023-08-21T13:16:45;7.15;;;6.10;;
44270;SDS011;29963;44.594;11.368;2023-08-21T13:19:11;6.25;;;5.55;;
44270;SDS011;29963;44.594;11.368;2023-08-21T13:21:37;7.15;;;6.18;;
44270;SDS011;29963;44.594;11.368;2023-08-21T13:24:02;7.18;;;6.18;;
44270;SDS011;29963;44.594;11.368;2023-08-21T13:26:29;7.07;;;6.38;;
44270;SDS011;29963;44.594;11.368;2023-08-21T13:28:56;6.93;;;6.22;;
44270;SDS011;29963;44.594;11.368;2023-08-21T13:31:21;7.35;;;5.88;;
44270;SDS011;29963;44.594;11.368;2023-08-21T13:33:47;8.48;;;5.57;;
44270;SDS011;29963;44.594;11.368;2023-08-21T13:36:14;9.00;;;6.38;;
44270;SDS011;29963;44.594;11.368;2023-08-21T13:38:41;7.88;;;6.28;;
44270;SDS011;29963;44.594;11.368;2023-08-21T13:41:07;6.57;;;6.05;;
44270;SDS011;29963;44.594;11.368;2023-08-21T13:43:33;6.05;;;5.53;;
44270;SDS011;29963;44.594;11.368;2023-08-21T13:46:02;6.07;;;5.57;;
44270;SDS011;29963;44.594;11.368;2023-08-21T13:48:31;5.93;;;5.43;;
44270;SDS011;29963;44.594;11.368;2023-08-21T13:50:57;6.53;;;5.82;;
44270;SDS011;29963;44.594;11.368;2023-08-21T13:53:23;8.52;;;6.18;;
44270;SDS011;29963;44.594;11.368;2023-08-21T13:55:51;7.60;;;5.50;;
44270;SDS011;29963;44.594;11.368;2023-08-21T13:58:17;5.90;;;5.40;;
44270;SDS011;29963;44.594;11.368;2023-08-21T14:00:43;8.35;;;5.63;;
44270;SDS011;29963;44.594;11.368;2023-08-21T14:03:11;6.20;;;5.55;;
44270;SDS011;29963;44.594;11.368;2023-08-21T14:05:37;5.65;;;5.22;;
44270;SDS011;29963;44.594;11.368;2023-08-21T14:08:03;6.82;;;4.85;;
44270;SDS011;29963;44.594;11.368;2023-08-21T14:10:29;5.38;;;4.93;;
44270;SDS011;29963;44.594;11.368;2023-08-21T14:12:55;6.53;;;4.85;;
44270;SDS011;29963;44.594;11.368;2023-08-21T14:15:22;5.75;;;5.25;;
44270;SDS011;29963;44.594;11.368;2023-08-21T14:17:47;6.95;;;5.03;;
44270;SDS011;29963;44.594;11.368;2023-08-21T14:20:14;5.90;;;5.35;;
44270;SDS011;29963;44.594;11.368;2023-08-21T14:22:40;6.05;;;5.22;;
44270;SDS011;29963;44.594;11.368;2023-08-21T14:25:06;5.00;;;4.60;;
44270;SDS011;29963;44.594;11.368;2023-08-21T14:27:32;5.97;;;5.45;;